sensor_id;sensor_type;location;lat;lon;timestamp;P1;durP1;ratioP1;P2;durP2;ratioP2
74510;SDS011;62991;50.040;18.400;2024-01-11T00:01:03;154.32;;;42.83;;
74510;SDS011;62991;50.040;18.400;2024-01-11T00:04:04;153.07;;;38.28;;
74510;SDS011;62991;50.040;18.400;2024-01-11T00:07:05;53.20;;;20.20;;
74510;SDS011;62991;50.040;18.400;2024-01-11T00:10:06;54.15;;;17.58;;
74510;SDS011;62991;50.040;18.400;2024-01-11T00:13:06;62.40;;;19.27;;
74510;SDS011;62991;50.040;18.400;2024-01-11T00:16:07;64.28;;;22.08;;
74510;SDS011;62991;50.040;18.400;2024-01-11T00:19:08;80.90;;;23.13;;
74510;SDS011;62991;50.040;18.400;2024-01-11T00:22:09;53.13;;;18.25;;
74510;SDS011;62991;50.040;18.400;2024-01-11T00:25:10;32.88;;;13.98;;
74510;SDS011;62991;50.040;18.400;2024-01-11T00:28:10;32.00;;;14.18;;
74510;SDS011;62991;50.040;18.400;2024-01-11T00:31:11;33.90;;;11.45;;
74510;SDS011;62991;50.040;18.400;2024-01-11T00:34:12;29.60;;;8.30;;
74510;SDS011;62991;50.040;18.400;2024-01-11T00:37:13;30.10;;;14.32;;
74510;SDS011;62991;50.040;18.400;2024-01-11T00:40:13;32.83;;;12.55;;
74510;SDS011;62991;50.040;18.400;2024-01-11T00:43:14;32.72;;;12.18;;
74510;SDS011;62991;50.040;18.400;2024-01-11T00:46:14;38.17;;;14.80;;
74510;SDS011;62991;50.040;18.400;2024-01-11T00:49:15;27.33;;;13.00;;
74510;SDS011;62991;50.040;18.400;2024-01-11T00:52:16;22.92;;;9.73;;
74510;SDS011;62991;50.040;18.400;2024-01-11T00:55:16;17.58;;;10.07;;
74510;SDS011;62991;50.040;18.400;2024-01-11T00:58:17;32.60;;;13.27;;
74510;SDS011;62991;50.040;18.400;2024-01-11T01:01:18;22.27;;;8.43;;
74510;SDS011;62991;50.040;18.400;2024-01-11T01:04:19;19.00;;;8.70;;
74510;SDS011;62991;50.040;18.400;2024-01-11T01:07:19;21.08;;;8.95;;
74510;SDS011;62991;50.040;18.400;2024-01-11T01:10:20;27.08;;;8.15;;
74510;SDS011;62991;50.040;18.400;2024-01-11T01:13:20;7.05;;;5.60;;
74510;SDS011;62991;50.040;18.400;2024-01-11T01:16:21;22.63;;;11.20;;
74510;SDS011;62991;50.040;18.400;2024-01-11T01:19:22;33.63;;;11.80;;
74510;SDS011;62991;50.040;18.400;2024-01-11T01:22:22;9.10;;;6.43;;
74510;SDS011;62991;50.040;18.400;2024-01-11T01:25:23;27.75;;;9.60;;
74510;SDS011;62991;50.040;18.400;2024-01-11T01:28:24;19.45;;;8.48;;
74510;SDS011;62991;50.040;18.400;2024-01-11T01:31:24;34.80;;;11.80;;
74510;SDS011;62991;50.040;18.400;2024-01-11T01:34:25;37.15;;;16.50;;
74510;SDS011;62991;50.040;18.400;2024-01-11T01:37:26;33.97;;;10.75;;
74510;SDS011;62991;50.040;18.400;2024-01-11T01:40:26;30.33;;;8.63;;
74510;SDS011;62991;50.040;18.400;2024-01-11T01:43:27;20.10;;;8.98;;
74510;SDS011;62991;50.040;18.400;2024-01-11T01:46:28;18.15;;;6.07;;
74510;SDS011;62991;50.040;18.400;2024-01-11T01:49:29;17.73;;;5.82;;
74510;SDS011;62991;50.040;18.400;2024-01-11T01:52:29;56.70;;;22.83;;
74510;SDS011;62991;50.040;18.400;2024-01-11T01:55:31;72.38;;;28.90;;
74510;SDS011;62991;50.040;18.400;2024-01-11T01:58:32;41.55;;;15.00;;
74510;SDS011;62991;50.040;18.400;2024-01-11T02:01:33;21.65;;;6.70;;
74510;SDS011;62991;50.040;18.400;2024-01-11T02:04:34;15.55;;;7.03;;
74510;SDS011;62991;50.040;18.400;2024-01-11T02:07:35;17.67;;;8.30;;
74510;SDS011;62991;50.040;18.400;2024-01-11T02:10:36;20.50;;;9.32;;
74510;SDS011;62991;50.040;18.400;2024-01-11T02:13:37;31.50;;;10.77;;
74510;SDS011;62991;50.040;18.400;2024-01-11T02:16:37;21.92;;;8.38;;
74510;SDS011;62991;50.040;18.400;2024-01-11T02:19:38;36.97;;;14.50;;
74510;SDS011;62991;50.040;18.400;2024-01-11T02:22:40;32.15;;;10.68;;
74510;SDS011;62991;50.040;18.400;2024-01-11T02:25:43;24.20;;;10.85;;
74510;SDS011;62991;50.040;18.400;2024-01-11T02:28:44;23.83;;;9.85;;
74510;SDS011;62991;50.040;18.400;2024-01-11T02:31:45;20.00;;;9.50;;
74510;SDS011;62991;50.040;18.400;2024-01-11T02:34:46;25.17;;;10.35;;
74510;SDS011;62991;50.040;18.400;2024-01-11T02:37:47;18.33;;;9.38;;
74510;SDS011;62991;50.040;18.400;2024-01-11T02:40:48;21.08;;;7.57;;
74510;SDS011;62991;50.040;18.400;2024-01-11T02:43:50;27.35;;;7.32;;
74510;SDS011;62991;50.040;18.400;2024-01-11T02:46:53;18.88;;;7.95;;
74510;SDS011;62991;50.040;18.400;2024-01-11T02:49:54;18.98;;;7.38;;
74510;SDS011;62991;50.040;18.400;2024-01-11T02:52:55;19.65;;;7.75;;
74510;SDS011;62991;50.040;18.400;2024-01-11T02:55:56;10.90;;;5.63;;
74510;SDS011;62991;50.040;18.400;2024-01-11T02:58:56;35.05;;;11.38;;
74510;SDS011;62991;50.040;18.400;2024-01-11T03:01:57;17.10;;;7.82;;
74510;SDS011;62991;50.040;18.400;2024-01-11T03:04:57;11.80;;;6.60;;
74510;SDS011;62991;50.040;18.400;2024-01-11T03:07:58;16.50;;;8.20;;
74510;SDS011;62991;50.040;18.400;2024-01-11T03:10:59;11.52;;;6.90;;
74510;SDS011;62991;50.040;18.400;2024-01-11T03:13:59;9.05;;;5.38;;
74510;SDS011;62991;50.040;18.400;2024-01-11T03:17:00;12.07;;;5.63;;
74510;SDS011;62991;50.040;18.400;2024-01-11T03:20:01;13.82;;;6.95;;
74510;SDS011;62991;50.040;18.400;2024-01-11T03:23:04;11.10;;;5.03;;
74510;SDS011;62991;50.040;18.400;2024-01-11T03:26:12;37.45;;;12.43;;
74510;SDS011;62991;50.040;18.400;2024-01-11T03:29:13;27.80;;;9.13;;
74510;SDS011;62991;50.040;18.400;2024-01-11T03:32:14;32.72;;;10.98;;
74510;SDS011;62991;50.040;18.400;2024-01-11T03:35:15;15.88;;;5.93;;
74510;SDS011;62991;50.040;18.400;2024-01-11T03:38:17;20.55;;;8.23;;
74510;SDS011;62991;50.040;18.400;2024-01-11T03:41:18;19.70;;;8.05;;
74510;SDS011;62991;50.040;18.400;2024-01-11T03:44:19;76.78;;;35.92;;
74510;SDS011;62991;50.040;18.400;2024-01-11T03:47:20;30.35;;;14.57;;
74510;SDS011;62991;50.040;18.400;2024-01-11T03:50:20;24.35;;;10.88;;
74510;SDS011;62991;50.040;18.400;2024-01-11T03:53:21;27.08;;;10.02;;
74510;SDS011;62991;50.040;18.400;2024-01-11T03:56:22;18.08;;;6.88;;
74510;SDS011;62991;50.040;18.400;2024-01-11T03:59:22;15.43;;;7.00;;
74510;SDS011;62991;50.040;18.400;2024-01-11T04:02:35;19.38;;;6.95;;
74510;SDS011;62991;50.040;18.400;2024-01-11T04:05:36;20.83;;;8.60;;
74510;SDS011;62991;50.040;18.400;2024-01-11T04:08:36;18.35;;;9.60;;
74510;SDS011;62991;50.040;18.400;2024-01-11T04:11:37;20.10;;;9.75;;
74510;SDS011;62991;50.040;18.400;2024-01-11T04:14:38;13.02;;;5.65;;
74510;SDS011;62991;50.040;18.400;2024-01-11T04:17:42;12.95;;;6.03;;
74510;SDS011;62991;50.040;18.400;2024-01-11T04:20:42;18.63;;;8.40;;
74510;SDS011;62991;50.040;18.400;2024-01-11T04:23:43;15.23;;;6.07;;
74510;SDS011;62991;50.040;18.400;2024-01-11T04:26:44;15.30;;;7.65;;
74510;SDS011;62991;50.040;18.400;2024-01-11T04:29:44;15.27;;;6.93;;
74510;SDS011;62991;50.040;18.400;2024-01-11T04:32:45;23.85;;;8.73;;
74510;SDS011;62991;50.040;18.400;2024-01-11T04:35:46;18.98;;;8.10;;
74510;SDS011;62991;50.040;18.400;2024-01-11T04:38:46;37.40;;;11.57;;
74510;SDS011;62991;50.040;18.400;2024-01-11T04:41:47;26.45;;;11.77;;
74510;SDS011;62991;50.040;18.400;2024-01-11T04:44:48;22.52;;;9.23;;
74510;SDS011;62991;50.040;18.400;2024-01-11T04:47:50;20.95;;;9.02;;
74510;SDS011;62991;50.040;18.400;2024-01-11T04:50:51;68.65;;;24.05;;
74510;SDS011;62991;50.040;18.400;2024-01-11T04:53:52;119.30;;;47.08;;
74510;SDS011;62991;50.040;18.400;2024-01-11T04:56:53;87.05;;;32.47;;
74510;SDS011;62991;50.040;18.400;2024-01-11T04:59:53;22.75;;;10.32;;
74510;SDS011;62991;50.040;18.400;2024-01-11T05:02:54;20.65;;;6.93;;
74510;SDS011;62991;50.040;18.400;2024-01-11T05:05:55;21.20;;;7.63;;
74510;SDS011;62991;50.040;18.400;2024-01-11T05:08:56;22.33;;;9.20;;
74510;SDS011;62991;50.040;18.400;2024-01-11T05:11:56;22.45;;;10.70;;
74510;SDS011;62991;50.040;18.400;2024-01-11T05:14:57;18.38;;;8.35;;
74510;SDS011;62991;50.040;18.400;2024-01-11T05:17:58;15.15;;;8.80;;
74510;SDS011;62991;50.040;18.400;2024-01-11T05:20:58;16.45;;;9.00;;
74510;SDS011;62991;50.040;18.400;2024-01-11T05:23:59;22.90;;;7.72;;
74510;SDS011;62991;50.040;18.400;2024-01-11T05:27:00;14.95;;;6.63;;
74510;SDS011;62991;50.040;18.400;2024-01-11T05:30:01;32.92;;;10.82;;
74510;SDS011;62991;50.040;18.400;2024-01-11T05:33:02;23.92;;;11.60;;
74510;SDS011;62991;50.040;18.400;2024-01-11T05:36:04;38.35;;;13.30;;
74510;SDS011;62991;50.040;18.400;2024-01-11T05:39:05;26.30;;;13.23;;
74510;SDS011;62991;50.040;18.400;2024-01-11T05:42:06;43.63;;;18.55;;
74510;SDS011;62991;50.040;18.400;2024-01-11T05:45:07;17.17;;;7.82;;
74510;SDS011;62991;50.040;18.400;2024-01-11T05:48:09;23.85;;;14.05;;
74510;SDS011;62991;50.040;18.400;2024-01-11T05:51:11;18.40;;;10.95;;
74510;SDS011;62991;50.040;18.400;2024-01-11T05:54:12;26.63;;;11.52;;
74510;SDS011;62991;50.040;18.400;2024-01-11T05:57:13;30.10;;;13.05;;
74510;SDS011;62991;50.040;18.400;2024-01-11T06:00:13;9.30;;;5.95;;
74510;SDS011;62991;50.040;18.400;2024-01-11T06:03:14;25.63;;;9.77;;
74510;SDS011;62991;50.040;18.400;2024-01-11T06:06:15;14.48;;;7.35;;
74510;SDS011;62991;50.040;18.400;2024-01-11T06:09:16;35.60;;;12.20;;
74510;SDS011;62991;50.040;18.400;2024-01-11T06:12:16;32.83;;;13.07;;
74510;SDS011;62991;50.040;18.400;2024-01-11T06:15:17;30.50;;;11.55;;
74510;SDS011;62991;50.040;18.400;2024-01-11T06:18:18;20.85;;;10.77;;
74510;SDS011;62991;50.040;18.400;2024-01-11T06:21:18;20.58;;;9.57;;
74510;SDS011;62991;50.040;18.400;2024-01-11T06:24:19;6.40;;;3.95;;
74510;SDS011;62991;50.040;18.400;2024-01-11T06:27:20;24.45;;;9.05;;
74510;SDS011;62991;50.040;18.400;2024-01-11T06:30:20;20.48;;;11.80;;
74510;SDS011;62991;50.040;18.400;2024-01-11T06:33:21;34.03;;;14.73;;
74510;SDS011;62991;50.040;18.400;2024-01-11T06:36:22;5.22;;;3.60;;
74510;SDS011;62991;50.040;18.400;2024-01-11T06:39:22;27.98;;;14.00;;
74510;SDS011;62991;50.040;18.400;2024-01-11T06:42:23;105.28;;;31.98;;
74510;SDS011;62991;50.040;18.400;2024-01-11T06:45:24;16.77;;;7.75;;
74510;SDS011;62991;50.040;18.400;2024-01-11T06:48:25;28.90;;;9.07;;
74510;SDS011;62991;50.040;18.400;2024-01-11T06:51:25;46.13;;;15.13;;
74510;SDS011;62991;50.040;18.400;2024-01-11T06:54:26;31.08;;;12.48;;
74510;SDS011;62991;50.040;18.400;2024-01-11T06:57:27;10.77;;;7.75;;
74510;SDS011;62991;50.040;18.400;2024-01-11T07:00:27;30.65;;;10.32;;
74510;SDS011;62991;50.040;18.400;2024-01-11T07:03:28;26.58;;;14.90;;
74510;SDS011;62991;50.040;18.400;2024-01-11T07:06:29;22.13;;;8.32;;
74510;SDS011;62991;50.040;18.400;2024-01-11T07:09:29;44.78;;;14.68;;
74510;SDS011;62991;50.040;18.400;2024-01-11T07:12:30;52.58;;;18.92;;
74510;SDS011;62991;50.040;18.400;2024-01-11T07:15:31;53.75;;;26.92;;
74510;SDS011;62991;50.040;18.400;2024-01-11T07:18:32;40.95;;;15.68;;
74510;SDS011;62991;50.040;18.400;2024-01-11T07:21:32;23.77;;;8.55;;
74510;SDS011;62991;50.040;18.400;2024-01-11T07:24:33;13.38;;;6.55;;
74510;SDS011;62991;50.040;18.400;2024-01-11T07:27:37;18.75;;;7.40;;
74510;SDS011;62991;50.040;18.400;2024-01-11T07:30:38;33.00;;;13.10;;
74510;SDS011;62991;50.040;18.400;2024-01-11T07:33:39;16.88;;;7.35;;
74510;SDS011;62991;50.040;18.400;2024-01-11T07:36:40;23.73;;;12.23;;
74510;SDS011;62991;50.040;18.400;2024-01-11T07:39:41;11.93;;;7.50;;
74510;SDS011;62991;50.040;18.400;2024-01-11T07:42:42;37.95;;;16.30;;
74510;SDS011;62991;50.040;18.400;2024-01-11T07:45:43;23.50;;;11.05;;
74510;SDS011;62991;50.040;18.400;2024-01-11T07:48:43;22.85;;;7.70;;
74510;SDS011;62991;50.040;18.400;2024-01-11T07:51:44;28.45;;;10.13;;
74510;SDS011;62991;50.040;18.400;2024-01-11T07:54:45;29.70;;;10.60;;
74510;SDS011;62991;50.040;18.400;2024-01-11T07:57:45;27.58;;;12.95;;
74510;SDS011;62991;50.040;18.400;2024-01-11T08:00:47;43.00;;;18.33;;
74510;SDS011;62991;50.040;18.400;2024-01-11T08:03:48;44.67;;;17.88;;
74510;SDS011;62991;50.040;18.400;2024-01-11T08:06:52;56.35;;;22.67;;
74510;SDS011;62991;50.040;18.400;2024-01-11T08:09:53;53.78;;;19.38;;
74510;SDS011;62991;50.040;18.400;2024-01-11T08:12:53;33.42;;;12.23;;
74510;SDS011;62991;50.040;18.400;2024-01-11T08:15:55;43.00;;;15.13;;
74510;SDS011;62991;50.040;18.400;2024-01-11T08:18:57;42.25;;;12.68;;
74510;SDS011;62991;50.040;18.400;2024-01-11T08:21:58;31.20;;;9.30;;
74510;SDS011;62991;50.040;18.400;2024-01-11T08:24:58;27.63;;;8.20;;
74510;SDS011;62991;50.040;18.400;2024-01-11T08:27:59;12.07;;;4.78;;
74510;SDS011;62991;50.040;18.400;2024-01-11T08:31:00;13.88;;;6.60;;
74510;SDS011;62991;50.040;18.400;2024-01-11T08:34:00;16.63;;;9.95;;
74510;SDS011;62991;50.040;18.400;2024-01-11T08:37:01;10.80;;;5.88;;
74510;SDS011;62991;50.040;18.400;2024-01-11T08:40:02;27.15;;;6.80;;
74510;SDS011;62991;50.040;18.400;2024-01-11T08:43:06;15.90;;;7.47;;
74510;SDS011;62991;50.040;18.400;2024-01-11T08:46:07;6.93;;;3.83;;
74510;SDS011;62991;50.040;18.400;2024-01-11T08:49:07;21.77;;;8.05;;
74510;SDS011;62991;50.040;18.400;2024-01-11T08:52:08;14.93;;;6.03;;
74510;SDS011;62991;50.040;18.400;2024-01-11T08:55:09;16.50;;;7.18;;
74510;SDS011;62991;50.040;18.400;2024-01-11T08:58:09;10.05;;;4.88;;
74510;SDS011;62991;50.040;18.400;2024-01-11T09:01:10;18.83;;;8.70;;
74510;SDS011;62991;50.040;18.400;2024-01-11T09:04:11;25.17;;;8.70;;
74510;SDS011;62991;50.040;18.400;2024-01-11T09:07:13;10.48;;;4.57;;
74510;SDS011;62991;50.040;18.400;2024-01-11T09:10:14;21.08;;;7.88;;
74510;SDS011;62991;50.040;18.400;2024-01-11T09:13:16;25.13;;;11.07;;
74510;SDS011;62991;50.040;18.400;2024-01-11T09:16:16;15.98;;;7.90;;
74510;SDS011;62991;50.040;18.400;2024-01-11T09:19:17;23.45;;;8.38;;
74510;SDS011;62991;50.040;18.400;2024-01-11T09:22:17;27.05;;;7.95;;
74510;SDS011;62991;50.040;18.400;2024-01-11T09:25:18;18.95;;;9.15;;
74510;SDS011;62991;50.040;18.400;2024-01-11T09:28:19;17.60;;;8.23;;
74510;SDS011;62991;50.040;18.400;2024-01-11T09:31:19;17.88;;;7.55;;
74510;SDS011;62991;50.040;18.400;2024-01-11T09:34:20;16.33;;;6.00;;
74510;SDS011;62991;50.040;18.400;2024-01-11T09:37:21;13.77;;;6.55;;
74510;SDS011;62991;50.040;18.400;2024-01-11T09:40:21;29.45;;;9.25;;
74510;SDS011;62991;50.040;18.400;2024-01-11T09:43:22;22.13;;;7.63;;
74510;SDS011;62991;50.040;18.400;2024-01-11T09:46:23;24.88;;;8.75;;
74510;SDS011;62991;50.040;18.400;2024-01-11T09:49:25;14.07;;;6.57;;
74510;SDS011;62991;50.040;18.400;2024-01-11T09:52:26;15.82;;;7.53;;
74510;SDS011;62991;50.040;18.400;2024-01-11T09:55:28;16.75;;;8.05;;
74510;SDS011;62991;50.040;18.400;2024-01-11T09:58:29;11.73;;;6.25;;
74510;SDS011;62991;50.040;18.400;2024-01-11T10:01:30;17.98;;;7.68;;
74510;SDS011;62991;50.040;18.400;2024-01-11T10:04:31;16.48;;;7.25;;
74510;SDS011;62991;50.040;18.400;2024-01-11T10:07:32;31.20;;;13.45;;
74510;SDS011;62991;50.040;18.400;2024-01-11T10:10:34;11.90;;;5.68;;
74510;SDS011;62991;50.040;18.400;2024-01-11T10:13:35;12.15;;;4.82;;
74510;SDS011;62991;50.040;18.400;2024-01-11T10:16:36;24.92;;;9.23;;
74510;SDS011;62991;50.040;18.400;2024-01-11T10:19:36;20.55;;;8.95;;
74510;SDS011;62991;50.040;18.400;2024-01-11T10:22:37;21.65;;;7.40;;
74510;SDS011;62991;50.040;18.400;2024-01-11T10:25:42;21.42;;;7.85;;
74510;SDS011;62991;50.040;18.400;2024-01-11T10:28:45;19.60;;;8.35;;
74510;SDS011;62991;50.040;18.400;2024-01-11T10:31:46;35.47;;;10.77;;
74510;SDS011;62991;50.040;18.400;2024-01-11T10:34:48;37.33;;;11.75;;
74510;SDS011;62991;50.040;18.400;2024-01-11T10:37:50;29.70;;;9.68;;
74510;SDS011;62991;50.040;18.400;2024-01-11T10:40:54;27.17;;;10.23;;
74510;SDS011;62991;50.040;18.400;2024-01-11T10:43:55;21.50;;;8.85;;
74510;SDS011;62991;50.040;18.400;2024-01-11T10:46:59;21.90;;;10.00;;
74510;SDS011;62991;50.040;18.400;2024-01-11T10:50:03;24.17;;;12.18;;
74510;SDS011;62991;50.040;18.400;2024-01-11T10:56:28;33.65;;;16.48;;
74510;SDS011;62991;50.040;18.400;2024-01-11T10:59:30;40.20;;;13.70;;
74510;SDS011;62991;50.040;18.400;2024-01-11T11:02:32;50.83;;;18.35;;
74510;SDS011;62991;50.040;18.400;2024-01-11T11:05:34;27.33;;;12.63;;
74510;SDS011;62991;50.040;18.400;2024-01-11T11:08:35;31.55;;;7.40;;
74510;SDS011;62991;50.040;18.400;2024-01-11T11:11:37;39.83;;;17.00;;
74510;SDS011;62991;50.040;18.400;2024-01-11T11:14:39;26.15;;;11.13;;
74510;SDS011;62991;50.040;18.400;2024-01-11T11:17:41;33.22;;;15.25;;
74510;SDS011;62991;50.040;18.400;2024-01-11T11:20:43;31.52;;;12.95;;
74510;SDS011;62991;50.040;18.400;2024-01-11T11:23:45;20.05;;;8.90;;
74510;SDS011;62991;50.040;18.400;2024-01-11T11:26:46;59.33;;;19.67;;
74510;SDS011;62991;50.040;18.400;2024-01-11T11:29:47;32.70;;;13.65;;
74510;SDS011;62991;50.040;18.400;2024-01-11T11:32:49;32.03;;;12.82;;
74510;SDS011;62991;50.040;18.400;2024-01-11T11:35:58;28.25;;;10.45;;
74510;SDS011;62991;50.040;18.400;2024-01-11T11:39:00;34.72;;;13.32;;
74510;SDS011;62991;50.040;18.400;2024-01-11T11:42:02;40.85;;;12.52;;
74510;SDS011;62991;50.040;18.400;2024-01-11T11:45:04;35.47;;;13.10;;
74510;SDS011;62991;50.040;18.400;2024-01-11T11:51:29;35.92;;;13.90;;
74510;SDS011;62991;50.040;18.400;2024-01-11T11:54:29;35.10;;;13.95;;
74510;SDS011;62991;50.040;18.400;2024-01-11T11:57:30;26.17;;;10.65;;
74510;SDS011;62991;50.040;18.400;2024-01-11T12:00:32;36.35;;;15.82;;
74510;SDS011;62991;50.040;18.400;2024-01-11T12:03:35;31.80;;;14.63;;
74510;SDS011;62991;50.040;18.400;2024-01-11T12:09:39;27.67;;;11.85;;
74510;SDS011;62991;50.040;18.400;2024-01-11T12:12:41;38.05;;;14.52;;
74510;SDS011;62991;50.040;18.400;2024-01-11T12:15:41;34.10;;;15.07;;
74510;SDS011;62991;50.040;18.400;2024-01-11T12:18:42;58.55;;;18.77;;
74510;SDS011;62991;50.040;18.400;2024-01-11T12:21:43;35.70;;;16.42;;
74510;SDS011;62991;50.040;18.400;2024-01-11T12:24:45;55.42;;;14.52;;
74510;SDS011;62991;50.040;18.400;2024-01-11T12:27:46;36.60;;;14.50;;
74510;SDS011;62991;50.040;18.400;2024-01-11T12:30:46;38.85;;;17.92;;
74510;SDS011;62991;50.040;18.400;2024-01-11T12:33:47;48.33;;;15.38;;
74510;SDS011;62991;50.040;18.400;2024-01-11T12:36:49;46.90;;;17.25;;
74510;SDS011;62991;50.040;18.400;2024-01-11T12:39:50;44.25;;;16.00;;
74510;SDS011;62991;50.040;18.400;2024-01-11T12:42:57;41.17;;;19.00;;
74510;SDS011;62991;50.040;18.400;2024-01-11T12:46:00;41.95;;;15.55;;
74510;SDS011;62991;50.040;18.400;2024-01-11T12:49:01;53.33;;;18.85;;
74510;SDS011;62991;50.040;18.400;2024-01-11T12:52:02;34.38;;;16.55;;
74510;SDS011;62991;50.040;18.400;2024-01-11T12:55:02;39.88;;;14.70;;
74510;SDS011;62991;50.040;18.400;2024-01-11T12:58:05;53.10;;;17.20;;
74510;SDS011;62991;50.040;18.400;2024-01-11T13:01:07;27.88;;;13.63;;
74510;SDS011;62991;50.040;18.400;2024-01-11T13:04:09;34.65;;;12.82;;
74510;SDS011;62991;50.040;18.400;2024-01-11T13:07:10;43.55;;;17.58;;
74510;SDS011;62991;50.040;18.400;2024-01-11T13:10:12;54.55;;;19.05;;
74510;SDS011;62991;50.040;18.400;2024-01-11T13:13:14;70.03;;;23.23;;
74510;SDS011;62991;50.040;18.400;2024-01-11T13:16:16;95.70;;;31.40;;
74510;SDS011;62991;50.040;18.400;2024-01-11T13:19:19;100.13;;;31.02;;
74510;SDS011;62991;50.040;18.400;2024-01-11T13:22:20;64.90;;;22.35;;
74510;SDS011;62991;50.040;18.400;2024-01-11T13:25:21;88.90;;;27.00;;
74510;SDS011;62991;50.040;18.400;2024-01-11T13:28:22;89.00;;;32.72;;
74510;SDS011;62991;50.040;18.400;2024-01-11T13:31:23;52.60;;;15.82;;
74510;SDS011;62991;50.040;18.400;2024-01-11T13:34:24;70.45;;;22.55;;
74510;SDS011;62991;50.040;18.400;2024-01-11T13:37:24;54.42;;;18.30;;
74510;SDS011;62991;50.040;18.400;2024-01-11T13:40:25;61.95;;;18.38;;
74510;SDS011;62991;50.040;18.400;2024-01-11T13:43:28;57.53;;;17.23;;
74510;SDS011;62991;50.040;18.400;2024-01-11T13:46:29;46.08;;;15.27;;
74510;SDS011;62991;50.040;18.400;2024-01-11T13:49:29;54.45;;;17.95;;
74510;SDS011;62991;50.040;18.400;2024-01-11T13:52:31;41.33;;;15.43;;
74510;SDS011;62991;50.040;18.400;2024-01-11T13:55:31;58.83;;;19.90;;
74510;SDS011;62991;50.040;18.400;2024-01-11T13:58:37;40.17;;;17.15;;
74510;SDS011;62991;50.040;18.400;2024-01-11T14:01:39;55.80;;;17.17;;
74510;SDS011;62991;50.040;18.400;2024-01-11T14:04:39;41.03;;;17.23;;
74510;SDS011;62991;50.040;18.400;2024-01-11T14:07:41;50.63;;;15.60;;
74510;SDS011;62991;50.040;18.400;2024-01-11T14:10:42;44.78;;;17.40;;
74510;SDS011;62991;50.040;18.400;2024-01-11T14:13:43;40.05;;;18.02;;
74510;SDS011;62991;50.040;18.400;2024-01-11T14:16:43;40.55;;;15.43;;
74510;SDS011;62991;50.040;18.400;2024-01-11T14:19:45;44.65;;;16.10;;
74510;SDS011;62991;50.040;18.400;2024-01-11T14:22:46;43.20;;;16.10;;
74510;SDS011;62991;50.040;18.400;2024-01-11T14:25:49;42.33;;;14.85;;
74510;SDS011;62991;50.040;18.400;2024-01-11T14:28:50;43.38;;;15.65;;
74510;SDS011;62991;50.040;18.400;2024-01-11T14:31:51;43.97;;;15.95;;
74510;SDS011;62991;50.040;18.400;2024-01-11T14:34:52;46.22;;;13.63;;
74510;SDS011;62991;50.040;18.400;2024-01-11T14:37:53;19.90;;;8.50;;
74510;SDS011;62991;50.040;18.400;2024-01-11T14:40:53;33.70;;;11.85;;
74510;SDS011;62991;50.040;18.400;2024-01-11T14:43:54;29.35;;;9.50;;
74510;SDS011;62991;50.040;18.400;2024-01-11T14:46:55;25.95;;;11.90;;
74510;SDS011;62991;50.040;18.400;2024-01-11T14:49:55;45.08;;;13.70;;
74510;SDS011;62991;50.040;18.400;2024-01-11T14:52:56;22.48;;;9.38;;
74510;SDS011;62991;50.040;18.400;2024-01-11T14:55:57;31.33;;;11.57;;
74510;SDS011;62991;50.040;18.400;2024-01-11T14:58:57;36.38;;;14.30;;
74510;SDS011;62991;50.040;18.400;2024-01-11T15:02:01;36.55;;;13.82;;
74510;SDS011;62991;50.040;18.400;2024-01-11T15:05:02;19.23;;;5.90;;
74510;SDS011;62991;50.040;18.400;2024-01-11T15:08:04;41.35;;;12.85;;
74510;SDS011;62991;50.040;18.400;2024-01-11T15:11:05;27.55;;;10.30;;
74510;SDS011;62991;50.040;18.400;2024-01-11T15:14:06;19.42;;;7.43;;
74510;SDS011;62991;50.040;18.400;2024-01-11T15:17:09;16.60;;;6.82;;
74510;SDS011;62991;50.040;18.400;2024-01-11T15:20:10;23.92;;;8.23;;
74510;SDS011;62991;50.040;18.400;2024-01-11T15:23:11;16.00;;;6.95;;
74510;SDS011;62991;50.040;18.400;2024-01-11T15:26:11;21.40;;;7.15;;
74510;SDS011;62991;50.040;18.400;2024-01-11T15:29:12;17.27;;;6.45;;
74510;SDS011;62991;50.040;18.400;2024-01-11T15:32:14;11.88;;;5.18;;
74510;SDS011;62991;50.040;18.400;2024-01-11T15:35:14;25.70;;;8.73;;
74510;SDS011;62991;50.040;18.400;2024-01-11T15:38:15;22.42;;;8.15;;
74510;SDS011;62991;50.040;18.400;2024-01-11T15:41:16;27.95;;;9.25;;
74510;SDS011;62991;50.040;18.400;2024-01-11T15:44:16;19.50;;;8.10;;
74510;SDS011;62991;50.040;18.400;2024-01-11T15:47:18;18.83;;;6.63;;
74510;SDS011;62991;50.040;18.400;2024-01-11T15:50:19;20.45;;;8.45;;
74510;SDS011;62991;50.040;18.400;2024-01-11T15:53:20;15.77;;;6.47;;
74510;SDS011;62991;50.040;18.400;2024-01-11T15:56:21;16.20;;;5.60;;
74510;SDS011;62991;50.040;18.400;2024-01-11T15:59:21;27.52;;;8.27;;
74510;SDS011;62991;50.040;18.400;2024-01-11T16:02:22;14.07;;;4.50;;
74510;SDS011;62991;50.040;18.400;2024-01-11T16:05:23;17.10;;;6.43;;
74510;SDS011;62991;50.040;18.400;2024-01-11T16:08:23;15.80;;;5.82;;
74510;SDS011;62991;50.040;18.400;2024-01-11T16:11:24;24.08;;;8.13;;
74510;SDS011;62991;50.040;18.400;2024-01-11T16:14:25;15.63;;;6.32;;
74510;SDS011;62991;50.040;18.400;2024-01-11T16:17:26;15.13;;;6.07;;
74510;SDS011;62991;50.040;18.400;2024-01-11T16:20:27;13.60;;;5.70;;
74510;SDS011;62991;50.040;18.400;2024-01-11T16:23:28;19.40;;;7.40;;
74510;SDS011;62991;50.040;18.400;2024-01-11T16:26:28;16.48;;;7.75;;
74510;SDS011;62991;50.040;18.400;2024-01-11T16:29:29;16.85;;;7.80;;
74510;SDS011;62991;50.040;18.400;2024-01-11T16:32:30;22.50;;;7.55;;
74510;SDS011;62991;50.040;18.400;2024-01-11T16:35:31;16.40;;;7.63;;
74510;SDS011;62991;50.040;18.400;2024-01-11T16:38:32;21.40;;;8.88;;
74510;SDS011;62991;50.040;18.400;2024-01-11T16:41:33;20.95;;;8.38;;
74510;SDS011;62991;50.040;18.400;2024-01-11T16:44:33;28.63;;;8.65;;
74510;SDS011;62991;50.040;18.400;2024-01-11T16:47:34;11.93;;;5.05;;
74510;SDS011;62991;50.040;18.400;2024-01-11T16:50:36;16.92;;;5.72;;
74510;SDS011;62991;50.040;18.400;2024-01-11T16:53:40;15.10;;;5.40;;
74510;SDS011;62991;50.040;18.400;2024-01-11T16:56:43;15.60;;;5.93;;
74510;SDS011;62991;50.040;18.400;2024-01-11T16:59:43;19.45;;;7.13;;
74510;SDS011;62991;50.040;18.400;2024-01-11T17:02:44;20.33;;;8.68;;
74510;SDS011;62991;50.040;18.400;2024-01-11T17:05:45;25.17;;;9.65;;
74510;SDS011;62991;50.040;18.400;2024-01-11T17:08:46;18.85;;;6.85;;
74510;SDS011;62991;50.040;18.400;2024-01-11T17:11:47;22.10;;;8.93;;
74510;SDS011;62991;50.040;18.400;2024-01-11T17:14:47;12.98;;;5.60;;
74510;SDS011;62991;50.040;18.400;2024-01-11T17:17:48;18.88;;;9.30;;
74510;SDS011;62991;50.040;18.400;2024-01-11T17:20:49;16.13;;;7.65;;
74510;SDS011;62991;50.040;18.400;2024-01-11T17:23:49;15.45;;;5.75;;
74510;SDS011;62991;50.040;18.400;2024-01-11T17:26:50;20.17;;;8.10;;
74510;SDS011;62991;50.040;18.400;2024-01-11T17:29:50;18.75;;;9.48;;
74510;SDS011;62991;50.040;18.400;2024-01-11T17:32:51;19.42;;;8.10;;
74510;SDS011;62991;50.040;18.400;2024-01-11T17:35:54;21.33;;;8.38;;
74510;SDS011;62991;50.040;18.400;2024-01-11T17:38:54;13.10;;;6.45;;
74510;SDS011;62991;50.040;18.400;2024-01-11T17:41:55;13.80;;;6.53;;